sensor_id;sensor_type;location;lat;lon;timestamp;P1;durP1;ratioP1;P2;durP2;ratioP2
58083;SDS011;43882;51.550;11.858;2023-03-20T00:01:04;23.80;;;8.98;;
58083;SDS011;43882;51.550;11.858;2023-03-20T00:03:38;18.63;;;6.13;;
58083;SDS011;43882;51.550;11.858;2023-03-20T00:06:08;16.45;;;5.57;;
58083;SDS011;43882;51.550;11.858;2023-03-20T00:08:41;16.75;;;6.07;;
58083;SDS011;43882;51.550;11.858;2023-03-20T00:11:29;17.25;;;6.22;;
58083;SDS011;43882;51.550;11.858;2023-03-20T00:14:03;20.60;;;6.75;;
58083;SDS011;43882;51.550;11.858;2023-03-20T00:16:35;17.15;;;5.90;;
58083;SDS011;43882;51.550;11.858;2023-03-20T00:19:03;15.63;;;5.40;;
58083;SDS011;43882;51.550;11.858;2023-03-20T00:21:30;16.15;;;5.57;;
58083;SDS011;43882;51.550;11.858;2023-03-20T00:23:57;16.80;;;5.82;;
58083;SDS011;43882;51.550;11.858;2023-03-20T00:26:25;15.10;;;5.50;;
58083;SDS011;43882;51.550;11.858;2023-03-20T00:28:53;15.68;;;5.45;;
58083;SDS011;43882;51.550;11.858;2023-03-20T00:33:54;16.30;;;5.93;;
58083;SDS011;43882;51.550;11.858;2023-03-20T00:36:21;15.68;;;5.60;;
58083;SDS011;43882;51.550;11.858;2023-03-20T00:38:48;16.02;;;5.60;;
58083;SDS011;43882;51.550;11.858;2023-03-20T00:41:25;15.48;;;5.40;;
58083;SDS011;43882;51.550;11.858;2023-03-20T00:43:57;14.50;;;5.28;;
58083;SDS011;43882;51.550;11.858;2023-03-20T00:46:25;15.07;;;5.28;;
58083;SDS011;43882;51.550;11.858;2023-03-20T00:48:52;16.02;;;5.80;;
58083;SDS011;43882;51.550;11.858;2023-03-20T00:51:18;14.73;;;5.35;;
58083;SDS011;43882;51.550;11.858;2023-03-20T00:53:44;15.73;;;5.85;;
58083;SDS011;43882;51.550;11.858;2023-03-20T00:58:58;15.02;;;5.20;;
58083;SDS011;43882;51.550;11.858;2023-03-20T01:01:25;15.05;;;5.38;;
58083;SDS011;43882;51.550;11.858;2023-03-20T01:03:52;15.80;;;5.13;;
58083;SDS011;43882;51.550;11.858;2023-03-20T01:06:18;15.25;;;5.22;;
58083;SDS011;43882;51.550;11.858;2023-03-20T01:08:44;15.13;;;5.47;;
58083;SDS011;43882;51.550;11.858;2023-03-20T01:11:11;16.98;;;5.50;;
58083;SDS011;43882;51.550;11.858;2023-03-20T01:13:45;16.33;;;5.72;;
58083;SDS011;43882;51.550;11.858;2023-03-20T01:16:16;15.18;;;5.40;;
58083;SDS011;43882;51.550;11.858;2023-03-20T01:18:45;16.38;;;5.70;;
58083;SDS011;43882;51.550;11.858;2023-03-20T01:21:12;15.30;;;5.57;;
58083;SDS011;43882;51.550;11.858;2023-03-20T01:23:38;14.63;;;5.05;;
58083;SDS011;43882;51.550;11.858;2023-03-20T01:26:08;15.60;;;5.40;;
58083;SDS011;43882;51.550;11.858;2023-03-20T01:28:43;16.10;;;5.28;;
58083;SDS011;43882;51.550;11.858;2023-03-20T01:31:09;15.20;;;5.57;;
58083;SDS011;43882;51.550;11.858;2023-03-20T01:33:36;16.00;;;5.82;;
58083;SDS011;43882;51.550;11.858;2023-03-20T01:36:02;18.05;;;5.50;;
58083;SDS011;43882;51.550;11.858;2023-03-20T01:38:28;15.85;;;5.82;;
58083;SDS011;43882;51.550;11.858;2023-03-20T01:40:55;15.75;;;5.40;;
58083;SDS011;43882;51.550;11.858;2023-03-20T01:43:24;16.40;;;5.88;;
58083;SDS011;43882;51.550;11.858;2023-03-20T01:45:56;15.10;;;5.25;;
58083;SDS011;43882;51.550;11.858;2023-03-20T01:48:24;15.75;;;5.57;;
58083;SDS011;43882;51.550;11.858;2023-03-20T01:50:59;15.27;;;5.40;;
58083;SDS011;43882;51.550;11.858;2023-03-20T01:53:26;15.90;;;5.82;;
58083;SDS011;43882;51.550;11.858;2023-03-20T01:55:54;15.60;;;5.50;;
58083;SDS011;43882;51.550;11.858;2023-03-20T01:58:24;15.07;;;5.50;;
58083;SDS011;43882;51.550;11.858;2023-03-20T02:00:53;16.13;;;5.65;;
58083;SDS011;43882;51.550;11.858;2023-03-20T02:03:19;16.05;;;5.93;;
58083;SDS011;43882;51.550;11.858;2023-03-20T02:05:46;16.33;;;5.90;;
58083;SDS011;43882;51.550;11.858;2023-03-20T02:08:29;15.23;;;5.30;;
58083;SDS011;43882;51.550;11.858;2023-03-20T02:10:57;15.43;;;5.30;;
58083;SDS011;43882;51.550;11.858;2023-03-20T02:13:28;15.25;;;5.10;;
58083;SDS011;43882;51.550;11.858;2023-03-20T02:16:05;18.45;;;6.40;;
58083;SDS011;43882;51.550;11.858;2023-03-20T02:18:35;15.50;;;5.35;;
58083;SDS011;43882;51.550;11.858;2023-03-20T02:24:10;15.73;;;5.25;;
58083;SDS011;43882;51.550;11.858;2023-03-20T02:40:41;15.60;;;5.68;;
58083;SDS011;43882;51.550;11.858;2023-03-20T02:51:14;15.80;;;6.13;;
58083;SDS011;43882;51.550;11.858;2023-03-20T02:53:53;15.85;;;5.68;;
58083;SDS011;43882;51.550;11.858;2023-03-20T02:56:52;16.42;;;5.90;;
58083;SDS011;43882;51.550;11.858;2023-03-20T02:59:43;16.15;;;5.90;;
58083;SDS011;43882;51.550;11.858;2023-03-20T03:04:43;16.90;;;6.40;;
58083;SDS011;43882;51.550;11.858;2023-03-20T03:07:14;17.23;;;6.80;;
58083;SDS011;43882;51.550;11.858;2023-03-20T03:09:43;16.95;;;6.55;;
58083;SDS011;43882;51.550;11.858;2023-03-20T03:12:16;18.58;;;7.30;;
58083;SDS011;43882;51.550;11.858;2023-03-20T03:14:49;19.80;;;7.55;;
58083;SDS011;43882;51.550;11.858;2023-03-20T03:17:19;16.13;;;6.45;;
58083;SDS011;43882;51.550;11.858;2023-03-20T03:19:48;15.82;;;6.25;;
58083;SDS011;43882;51.550;11.858;2023-03-20T03:22:15;17.10;;;6.10;;
58083;SDS011;43882;51.550;11.858;2023-03-20T03:24:42;17.65;;;6.88;;
58083;SDS011;43882;51.550;11.858;2023-03-20T03:27:23;16.10;;;6.35;;
58083;SDS011;43882;51.550;11.858;2023-03-20T03:30:11;16.85;;;6.60;;
58083;SDS011;43882;51.550;11.858;2023-03-20T03:32:42;18.60;;;6.38;;
58083;SDS011;43882;51.550;11.858;2023-03-20T03:35:19;16.58;;;6.38;;
58083;SDS011;43882;51.550;11.858;2023-03-20T03:40:41;18.58;;;7.47;;
58083;SDS011;43882;51.550;11.858;2023-03-20T03:43:12;16.92;;;6.68;;
58083;SDS011;43882;51.550;11.858;2023-03-20T03:45:51;17.15;;;6.60;;
58083;SDS011;43882;51.550;11.858;2023-03-20T03:48:22;17.25;;;6.70;;
58083;SDS011;43882;51.550;11.858;2023-03-20T03:50:57;16.75;;;6.90;;
58083;SDS011;43882;51.550;11.858;2023-03-20T03:53:36;18.10;;;7.00;;
58083;SDS011;43882;51.550;11.858;2023-03-20T03:56:07;18.10;;;6.57;;
58083;SDS011;43882;51.550;11.858;2023-03-20T03:58:36;17.50;;;7.30;;
58083;SDS011;43882;51.550;11.858;2023-03-20T04:01:19;17.75;;;7.20;;
58083;SDS011;43882;51.550;11.858;2023-03-20T04:03:53;20.13;;;7.60;;
58083;SDS011;43882;51.550;11.858;2023-03-20T04:06:21;18.67;;;7.38;;
58083;SDS011;43882;51.550;11.858;2023-03-20T04:08:48;19.23;;;7.53;;
58083;SDS011;43882;51.550;11.858;2023-03-20T04:11:14;18.58;;;7.10;;
58083;SDS011;43882;51.550;11.858;2023-03-20T04:13:45;17.27;;;7.75;;
58083;SDS011;43882;51.550;11.858;2023-03-20T04:16:12;18.50;;;7.75;;
58083;SDS011;43882;51.550;11.858;2023-03-20T04:18:40;18.27;;;7.85;;
58083;SDS011;43882;51.550;11.858;2023-03-20T04:21:06;18.10;;;7.40;;
58083;SDS011;43882;51.550;11.858;2023-03-20T04:23:33;19.85;;;8.40;;
58083;SDS011;43882;51.550;11.858;2023-03-20T04:25:59;18.52;;;7.43;;
58083;SDS011;43882;51.550;11.858;2023-03-20T04:28:25;18.83;;;8.10;;
58083;SDS011;43882;51.550;11.858;2023-03-20T04:30:52;16.88;;;7.25;;
58083;SDS011;43882;51.550;11.858;2023-03-20T04:33:18;18.83;;;7.75;;
58083;SDS011;43882;51.550;11.858;2023-03-20T04:35:45;18.40;;;7.88;;
58083;SDS011;43882;51.550;11.858;2023-03-20T04:38:12;19.65;;;8.07;;
58083;SDS011;43882;51.550;11.858;2023-03-20T04:40:38;19.10;;;7.88;;
58083;SDS011;43882;51.550;11.858;2023-03-20T04:43:04;17.65;;;7.22;;
58083;SDS011;43882;51.550;11.858;2023-03-20T04:45:30;18.58;;;7.90;;
58083;SDS011;43882;51.550;11.858;2023-03-20T04:47:56;17.70;;;7.40;;
58083;SDS011;43882;51.550;11.858;2023-03-20T04:50:22;19.15;;;7.50;;
58083;SDS011;43882;51.550;11.858;2023-03-20T04:52:49;20.98;;;8.35;;
58083;SDS011;43882;51.550;11.858;2023-03-20T04:55:15;19.02;;;7.88;;
58083;SDS011;43882;51.550;11.858;2023-03-20T04:57:41;18.00;;;7.00;;
58083;SDS011;43882;51.550;11.858;2023-03-20T05:00:07;18.73;;;7.65;;
58083;SDS011;43882;51.550;11.858;2023-03-20T05:02:34;18.77;;;7.40;;
58083;SDS011;43882;51.550;11.858;2023-03-20T05:05:00;18.13;;;7.32;;
58083;SDS011;43882;51.550;11.858;2023-03-20T05:07:26;18.13;;;7.68;;
58083;SDS011;43882;51.550;11.858;2023-03-20T05:09:52;18.90;;;7.97;;
58083;SDS011;43882;51.550;11.858;2023-03-20T05:12:18;18.42;;;7.35;;
58083;SDS011;43882;51.550;11.858;2023-03-20T05:14:45;19.25;;;8.00;;
58083;SDS011;43882;51.550;11.858;2023-03-20T05:17:11;20.73;;;9.18;;
58083;SDS011;43882;51.550;11.858;2023-03-20T05:19:37;23.23;;;9.50;;
58083;SDS011;43882;51.550;11.858;2023-03-20T05:22:03;28.10;;;11.63;;
58083;SDS011;43882;51.550;11.858;2023-03-20T05:24:29;24.40;;;10.25;;
58083;SDS011;43882;51.550;11.858;2023-03-20T05:26:56;26.60;;;11.50;;
58083;SDS011;43882;51.550;11.858;2023-03-20T05:29:22;32.58;;;13.63;;
58083;SDS011;43882;51.550;11.858;2023-03-20T05:31:48;30.80;;;13.05;;
58083;SDS011;43882;51.550;11.858;2023-03-20T05:34:14;35.13;;;15.68;;
58083;SDS011;43882;51.550;11.858;2023-03-20T05:36:40;42.17;;;17.70;;
58083;SDS011;43882;51.550;11.858;2023-03-20T05:39:06;43.15;;;17.30;;
58083;SDS011;43882;51.550;11.858;2023-03-20T05:41:32;46.47;;;19.30;;
58083;SDS011;43882;51.550;11.858;2023-03-20T05:43:58;57.85;;;24.40;;
58083;SDS011;43882;51.550;11.858;2023-03-20T05:46:25;65.20;;;25.73;;
58083;SDS011;43882;51.550;11.858;2023-03-20T05:48:51;73.53;;;29.10;;
58083;SDS011;43882;51.550;11.858;2023-03-20T05:51:17;83.15;;;29.98;;
58083;SDS011;43882;51.550;11.858;2023-03-20T05:53:43;98.72;;;33.95;;
58083;SDS011;43882;51.550;11.858;2023-03-20T05:56:09;104.90;;;35.33;;
58083;SDS011;43882;51.550;11.858;2023-03-20T05:58:35;103.38;;;37.08;;
58083;SDS011;43882;51.550;11.858;2023-03-20T06:01:01;103.60;;;36.70;;
58083;SDS011;43882;51.550;11.858;2023-03-20T06:03:27;108.57;;;37.60;;
58083;SDS011;43882;51.550;11.858;2023-03-20T06:05:54;114.60;;;36.58;;
58083;SDS011;43882;51.550;11.858;2023-03-20T06:08:20;109.18;;;37.60;;
58083;SDS011;43882;51.550;11.858;2023-03-20T06:10:48;109.82;;;37.00;;
58083;SDS011;43882;51.550;11.858;2023-03-20T06:13:15;106.57;;;34.78;;
58083;SDS011;43882;51.550;11.858;2023-03-20T06:15:41;104.35;;;37.75;;
58083;SDS011;43882;51.550;11.858;2023-03-20T06:18:07;94.22;;;35.40;;
58083;SDS011;43882;51.550;11.858;2023-03-20T06:20:33;100.30;;;35.63;;
58083;SDS011;43882;51.550;11.858;2023-03-20T06:22:59;96.88;;;33.97;;
58083;SDS011;43882;51.550;11.858;2023-03-20T06:25:25;94.82;;;35.40;;
58083;SDS011;43882;51.550;11.858;2023-03-20T06:27:52;106.03;;;40.47;;
58083;SDS011;43882;51.550;11.858;2023-03-20T06:30:18;170.35;;;53.45;;
58083;SDS011;43882;51.550;11.858;2023-03-20T06:32:45;339.40;;;158.43;;
58083;SDS011;43882;51.550;11.858;2023-03-20T06:35:11;334.30;;;155.00;;
58083;SDS011;43882;51.550;11.858;2023-03-20T06:37:38;117.80;;;50.70;;
58083;SDS011;43882;51.550;11.858;2023-03-20T06:40:04;101.05;;;41.83;;
58083;SDS011;43882;51.550;11.858;2023-03-20T06:42:31;91.75;;;38.15;;
58083;SDS011;43882;51.550;11.858;2023-03-20T06:44:57;106.15;;;45.90;;
58083;SDS011;43882;51.550;11.858;2023-03-20T06:47:23;99.57;;;40.45;;
58083;SDS011;43882;51.550;11.858;2023-03-20T06:49:50;85.97;;;33.25;;
58083;SDS011;43882;51.550;11.858;2023-03-20T06:52:16;74.22;;;29.25;;
58083;SDS011;43882;51.550;11.858;2023-03-20T06:54:45;72.85;;;30.30;;
58083;SDS011;43882;51.550;11.858;2023-03-20T06:57:11;72.35;;;30.42;;
58083;SDS011;43882;51.550;11.858;2023-03-20T06:59:38;72.50;;;29.05;;
58083;SDS011;43882;51.550;11.858;2023-03-20T07:02:04;71.85;;;28.58;;
58083;SDS011;43882;51.550;11.858;2023-03-20T07:04:31;74.18;;;29.40;;
58083;SDS011;43882;51.550;11.858;2023-03-20T07:06:57;63.40;;;27.52;;
58083;SDS011;43882;51.550;11.858;2023-03-20T07:09:23;66.10;;;26.98;;
58083;SDS011;43882;51.550;11.858;2023-03-20T07:11:50;72.20;;;29.02;;
58083;SDS011;43882;51.550;11.858;2023-03-20T07:14:17;62.72;;;27.15;;
58083;SDS011;43882;51.550;11.858;2023-03-20T07:16:44;62.72;;;27.58;;
58083;SDS011;43882;51.550;11.858;2023-03-20T07:19:10;65.55;;;28.75;;
58083;SDS011;43882;51.550;11.858;2023-03-20T07:21:37;63.22;;;27.50;;
58083;SDS011;43882;51.550;11.858;2023-03-20T07:24:03;66.38;;;28.50;;
58083;SDS011;43882;51.550;11.858;2023-03-20T07:26:31;61.85;;;26.83;;
58083;SDS011;43882;51.550;11.858;2023-03-20T07:28:57;65.70;;;27.73;;
58083;SDS011;43882;51.550;11.858;2023-03-20T07:31:24;62.70;;;27.17;;
58083;SDS011;43882;51.550;11.858;2023-03-20T07:33:52;62.05;;;25.27;;
58083;SDS011;43882;51.550;11.858;2023-03-20T07:36:19;56.88;;;25.23;;
58083;SDS011;43882;51.550;11.858;2023-03-20T07:38:46;59.30;;;24.70;;
58083;SDS011;43882;51.550;11.858;2023-03-20T07:41:12;56.35;;;24.20;;
58083;SDS011;43882;51.550;11.858;2023-03-20T07:43:38;59.60;;;25.33;;
58083;SDS011;43882;51.550;11.858;2023-03-20T07:46:04;54.05;;;24.42;;
58083;SDS011;43882;51.550;11.858;2023-03-20T07:48:31;59.10;;;26.50;;
58083;SDS011;43882;51.550;11.858;2023-03-20T07:50:58;62.47;;;29.67;;
58083;SDS011;43882;51.550;11.858;2023-03-20T07:53:24;60.40;;;29.20;;
58083;SDS011;43882;51.550;11.858;2023-03-20T07:55:50;63.10;;;26.10;;
58083;SDS011;43882;51.550;11.858;2023-03-20T07:58:16;58.55;;;24.90;;
58083;SDS011;43882;51.550;11.858;2023-03-20T08:00:42;65.80;;;29.85;;
58083;SDS011;43882;51.550;11.858;2023-03-20T08:03:08;55.60;;;24.98;;
58083;SDS011;43882;51.550;11.858;2023-03-20T08:05:35;60.55;;;26.35;;
58083;SDS011;43882;51.550;11.858;2023-03-20T08:08:01;54.17;;;23.90;;
58083;SDS011;43882;51.550;11.858;2023-03-20T08:10:27;58.58;;;25.10;;
58083;SDS011;43882;51.550;11.858;2023-03-20T08:12:53;58.53;;;25.40;;
58083;SDS011;43882;51.550;11.858;2023-03-20T08:15:20;56.63;;;25.85;;
58083;SDS011;43882;51.550;11.858;2023-03-20T08:17:46;56.75;;;25.08;;
58083;SDS011;43882;51.550;11.858;2023-03-20T08:20:13;57.72;;;24.10;;
58083;SDS011;43882;51.550;11.858;2023-03-20T08:22:40;53.58;;;23.02;;
58083;SDS011;43882;51.550;11.858;2023-03-20T08:25:07;52.53;;;23.15;;
58083;SDS011;43882;51.550;11.858;2023-03-20T08:27:34;54.63;;;22.85;;
58083;SDS011;43882;51.550;11.858;2023-03-20T08:30:00;54.45;;;24.13;;
58083;SDS011;43882;51.550;11.858;2023-03-20T08:32:27;53.13;;;23.13;;
58083;SDS011;43882;51.550;11.858;2023-03-20T08:34:53;50.70;;;22.45;;
58083;SDS011;43882;51.550;11.858;2023-03-20T08:37:19;53.05;;;24.15;;
58083;SDS011;43882;51.550;11.858;2023-03-20T08:39:46;51.15;;;22.67;;
58083;SDS011;43882;51.550;11.858;2023-03-20T08:42:12;54.53;;;22.85;;
58083;SDS011;43882;51.550;11.858;2023-03-20T08:44:38;54.20;;;24.42;;
58083;SDS011;43882;51.550;11.858;2023-03-20T08:47:05;54.47;;;24.35;;
58083;SDS011;43882;51.550;11.858;2023-03-20T08:49:32;50.97;;;22.15;;
58083;SDS011;43882;51.550;11.858;2023-03-20T08:51:58;54.85;;;23.30;;
58083;SDS011;43882;51.550;11.858;2023-03-20T08:54:24;53.13;;;21.60;;
58083;SDS011;43882;51.550;11.858;2023-03-20T08:56:51;47.90;;;20.70;;
58083;SDS011;43882;51.550;11.858;2023-03-20T08:59:17;47.50;;;20.60;;
58083;SDS011;43882;51.550;11.858;2023-03-20T09:01:43;48.42;;;20.63;;
58083;SDS011;43882;51.550;11.858;2023-03-20T09:04:10;50.15;;;21.23;;
58083;SDS011;43882;51.550;11.858;2023-03-20T09:06:37;46.78;;;19.20;;
58083;SDS011;43882;51.550;11.858;2023-03-20T09:09:04;48.35;;;19.85;;
58083;SDS011;43882;51.550;11.858;2023-03-20T09:11:30;52.97;;;21.63;;
58083;SDS011;43882;51.550;11.858;2023-03-20T09:13:57;47.67;;;20.08;;
58083;SDS011;43882;51.550;11.858;2023-03-20T09:16:23;49.42;;;19.92;;
58083;SDS011;43882;51.550;11.858;2023-03-20T09:18:50;48.20;;;20.02;;
58083;SDS011;43882;51.550;11.858;2023-03-20T09:21:16;49.67;;;22.15;;
58083;SDS011;43882;51.550;11.858;2023-03-20T09:23:42;47.22;;;20.33;;
58083;SDS011;43882;51.550;11.858;2023-03-20T09:26:08;47.22;;;20.27;;
58083;SDS011;43882;51.550;11.858;2023-03-20T09:28:34;46.00;;;19.38;;
58083;SDS011;43882;51.550;11.858;2023-03-20T09:31:00;65.65;;;32.83;;
58083;SDS011;43882;51.550;11.858;2023-03-20T09:33:26;53.53;;;21.52;;
58083;SDS011;43882;51.550;11.858;2023-03-20T09:35:53;50.78;;;20.90;;
58083;SDS011;43882;51.550;11.858;2023-03-20T09:38:19;53.53;;;22.33;;
58083;SDS011;43882;51.550;11.858;2023-03-20T09:40:56;59.65;;;32.92;;
58083;SDS011;43882;51.550;11.858;2023-03-20T09:46:18;64.82;;;30.80;;
58083;SDS011;43882;51.550;11.858;2023-03-20T09:48:48;52.00;;;24.17;;
58083;SDS011;43882;51.550;11.858;2023-03-20T09:54:10;49.50;;;20.35;;
58083;SDS011;43882;51.550;11.858;2023-03-20T09:56:52;49.83;;;20.00;;
58083;SDS011;43882;51.550;11.858;2023-03-20T09:59:20;49.22;;;19.90;;
58083;SDS011;43882;51.550;11.858;2023-03-20T10:04:17;46.45;;;19.00;;
58083;SDS011;43882;51.550;11.858;2023-03-20T10:06:43;46.08;;;20.05;;
58083;SDS011;43882;51.550;11.858;2023-03-20T10:09:21;47.78;;;19.00;;
58083;SDS011;43882;51.550;11.858;2023-03-20T10:14:53;46.03;;;18.80;;
58083;SDS011;43882;51.550;11.858;2023-03-20T10:20:12;45.15;;;17.85;;
58083;SDS011;43882;51.550;11.858;2023-03-20T10:23:23;42.58;;;18.55;;
58083;SDS011;43882;51.550;11.858;2023-03-20T10:26:05;45.90;;;21.15;;
58083;SDS011;43882;51.550;11.858;2023-03-20T10:33:56;47.70;;;19.05;;
58083;SDS011;43882;51.550;11.858;2023-03-20T10:39:09;39.30;;;15.63;;
58083;SDS011;43882;51.550;11.858;2023-03-20T10:41:42;40.10;;;16.13;;
58083;SDS011;43882;51.550;11.858;2023-03-20T10:44:30;44.00;;;18.83;;
58083;SDS011;43882;51.550;11.858;2023-03-20T10:47:08;40.42;;;17.60;;
58083;SDS011;43882;51.550;11.858;2023-03-20T10:49:38;43.47;;;17.83;;
58083;SDS011;43882;51.550;11.858;2023-03-20T10:52:11;42.83;;;16.30;;
58083;SDS011;43882;51.550;11.858;2023-03-20T10:54:42;40.00;;;16.75;;
58083;SDS011;43882;51.550;11.858;2023-03-20T10:57:14;43.05;;;18.02;;
58083;SDS011;43882;51.550;11.858;2023-03-20T10:59:50;42.33;;;17.33;;
58083;SDS011;43882;51.550;11.858;2023-03-20T11:02:19;45.17;;;19.10;;
58083;SDS011;43882;51.550;11.858;2023-03-20T11:04:46;43.70;;;18.75;;
58083;SDS011;43882;51.550;11.858;2023-03-20T11:07:23;43.45;;;17.45;;
58083;SDS011;43882;51.550;11.858;2023-03-20T11:12:31;41.30;;;18.15;;
58083;SDS011;43882;51.550;11.858;2023-03-20T11:15:24;40.38;;;16.48;;
58083;SDS011;43882;51.550;11.858;2023-03-20T11:18:00;44.08;;;17.75;;
58083;SDS011;43882;51.550;11.858;2023-03-20T11:20:32;46.22;;;17.83;;
58083;SDS011;43882;51.550;11.858;2023-03-20T11:23:03;44.42;;;19.15;;
58083;SDS011;43882;51.550;11.858;2023-03-20T11:26:17;42.88;;;17.48;;
58083;SDS011;43882;51.550;11.858;2023-03-20T11:28:34;42.47;;;16.95;;
58083;SDS011;43882;51.550;11.858;2023-03-20T11:31:03;43.00;;;18.20;;
58083;SDS011;43882;51.550;11.858;2023-03-20T11:33:31;41.33;;;17.70;;
58083;SDS011;43882;51.550;11.858;2023-03-20T11:36:00;40.13;;;16.95;;
58083;SDS011;43882;51.550;11.858;2023-03-20T11:38:27;42.97;;;17.88;;
58083;SDS011;43882;51.550;11.858;2023-03-20T11:40:54;42.95;;;17.88;;
58083;SDS011;43882;51.550;11.858;2023-03-20T11:43:21;42.20;;;17.30;;
58083;SDS011;43882;51.550;11.858;2023-03-20T11:45:58;43.58;;;18.23;;
58083;SDS011;43882;51.550;11.858;2023-03-20T11:48:38;47.58;;;21.02;;
58083;SDS011;43882;51.550;11.858;2023-03-20T11:51:06;48.38;;;19.60;;
58083;SDS011;43882;51.550;11.858;2023-03-20T11:53:40;44.88;;;19.50;;
58083;SDS011;43882;51.550;11.858;2023-03-20T11:56:13;44.78;;;19.23;;
58083;SDS011;43882;51.550;11.858;2023-03-20T11:58:50;43.80;;;18.30;;
58083;SDS011;43882;51.550;11.858;2023-03-20T12:03:51;47.05;;;19.20;;
58083;SDS011;43882;51.550;11.858;2023-03-20T12:06:36;48.35;;;19.13;;
58083;SDS011;43882;51.550;11.858;2023-03-20T12:09:51;44.78;;;19.02;;
58083;SDS011;43882;51.550;11.858;2023-03-20T12:12:20;46.13;;;19.02;;
58083;SDS011;43882;51.550;11.858;2023-03-20T12:20:31;38.10;;;16.20;;
58083;SDS011;43882;51.550;11.858;2023-03-20T12:23:02;35.45;;;15.07;;
58083;SDS011;43882;51.550;11.858;2023-03-20T12:25:36;37.60;;;15.35;;
58083;SDS011;43882;51.550;11.858;2023-03-20T12:33:43;28.23;;;11.55;;
58083;SDS011;43882;51.550;11.858;2023-03-20T12:39:02;28.00;;;10.40;;
58083;SDS011;43882;51.550;11.858;2023-03-20T12:41:43;29.30;;;10.88;;
58083;SDS011;43882;51.550;11.858;2023-03-20T12:44:28;27.83;;;10.68;;
58083;SDS011;43882;51.550;11.858;2023-03-20T12:49:51;28.33;;;10.40;;
58083;SDS011;43882;51.550;11.858;2023-03-20T12:52:32;30.38;;;11.65;;
58083;SDS011;43882;51.550;11.858;2023-03-20T13:00:39;30.27;;;11.45;;
58083;SDS011;43882;51.550;11.858;2023-03-20T13:06:53;28.10;;;11.10;;
58083;SDS011;43882;51.550;11.858;2023-03-20T13:09:03;33.00;;;13.02;;
58083;SDS011;43882;51.550;11.858;2023-03-20T13:17:16;31.75;;;13.00;;
58083;SDS011;43882;51.550;11.858;2023-03-20T13:27:58;29.30;;;12.05;;
58083;SDS011;43882;51.550;11.858;2023-03-20T13:30:32;29.48;;;12.25;;
58083;SDS011;43882;51.550;11.858;2023-03-20T13:33:29;31.73;;;12.40;;
58083;SDS011;43882;51.550;11.858;2023-03-20T13:38:58;28.65;;;10.80;;
58083;SDS011;43882;51.550;11.858;2023-03-20T13:41:36;28.08;;;11.20;;
58083;SDS011;43882;51.550;11.858;2023-03-20T13:44:03;30.88;;;11.75;;
58083;SDS011;43882;51.550;11.858;2023-03-20T13:46:43;46.50;;;18.52;;
58083;SDS011;43882;51.550;11.858;2023-03-20T13:49:22;101.15;;;37.97;;
58083;SDS011;43882;51.550;11.858;2023-03-20T13:51:59;30.10;;;12.55;;
58083;SDS011;43882;51.550;11.858;2023-03-20T13:57:25;38.10;;;18.00;;
58083;SDS011;43882;51.550;11.858;2023-03-20T14:03:15;29.40;;;12.32;;
58083;SDS011;43882;51.550;11.858;2023-03-20T14:05:44;29.10;;;11.95;;
58083;SDS011;43882;51.550;11.858;2023-03-20T14:11:24;28.75;;;11.38;;
58083;SDS011;43882;51.550;11.858;2023-03-20T14:13:50;29.05;;;11.93;;
58083;SDS011;43882;51.550;11.858;2023-03-20T14:16:18;28.92;;;11.73;;
58083;SDS011;43882;51.550;11.858;2023-03-20T14:18:46;30.63;;;12.20;;
58083;SDS011;43882;51.550;11.858;2023-03-20T14:21:17;27.48;;;11.27;;
58083;SDS011;43882;51.550;11.858;2023-03-20T14:23:56;26.50;;;10.60;;
58083;SDS011;43882;51.550;11.858;2023-03-20T14:26:30;27.30;;;11.15;;
58083;SDS011;43882;51.550;11.858;2023-03-20T14:31:34;28.90;;;11.82;;
58083;SDS011;43882;51.550;11.858;2023-03-20T14:36:56;29.67;;;11.90;;
58083;SDS011;43882;51.550;11.858;2023-03-20T14:44:48;121.00;;;53.38;;
58083;SDS011;43882;51.550;11.858;2023-03-20T14:47:28;55.17;;;31.80;;
58083;SDS011;43882;51.550;11.858;2023-03-20T14:58:39;30.25;;;13.80;;
58083;SDS011;43882;51.550;11.858;2023-03-20T15:03:50;28.77;;;12.43;;
58083;SDS011;43882;51.550;11.858;2023-03-20T15:06:19;30.95;;;15.63;;
58083;SDS011;43882;51.550;11.858;2023-03-20T15:08:48;26.38;;;12.07;;
58083;SDS011;43882;51.550;11.858;2023-03-20T15:11:25;26.50;;;10.80;;
58083;SDS011;43882;51.550;11.858;2023-03-20T15:13:51;26.58;;;10.32;;
58083;SDS011;43882;51.550;11.858;2023-03-20T15:16:26;31.13;;;11.35;;
58083;SDS011;43882;51.550;11.858;2023-03-20T15:18:53;29.33;;;15.32;;
58083;SDS011;43882;51.550;11.858;2023-03-20T15:21:21;29.90;;;13.20;;
58083;SDS011;43882;51.550;11.858;2023-03-20T15:23:57;25.48;;;11.20;;
58083;SDS011;43882;51.550;11.858;2023-03-20T15:26:24;25.38;;;10.55;;
58083;SDS011;43882;51.550;11.858;2023-03-20T15:29:02;29.10;;;11.50;;
58083;SDS011;43882;51.550;11.858;2023-03-20T15:31:33;28.23;;;11.00;;
58083;SDS011;43882;51.550;11.858;2023-03-20T15:34:03;29.40;;;11.55;;
58083;SDS011;43882;51.550;11.858;2023-03-20T15:36:33;27.73;;;10.30;;
58083;SDS011;43882;51.550;11.858;2023-03-20T15:39:19;27.88;;;10.88;;
58083;SDS011;43882;51.550;11.858;2023-03-20T15:41:52;27.25;;;11.18;;
58083;SDS011;43882;51.550;11.858;2023-03-20T15:44:21;29.35;;;10.52;;
58083;SDS011;43882;51.550;11.858;2023-03-20T15:46:52;36.45;;;14.77;;
58083;SDS011;43882;51.550;11.858;2023-03-20T15:49:23;41.70;;;17.88;;
58083;SDS011;43882;51.550;11.858;2023-03-20T15:51:49;50.50;;;21.95;;
58083;SDS011;43882;51.550;11.858;2023-03-20T15:54:16;35.08;;;15.73;;
58083;SDS011;43882;51.550;11.858;2023-03-20T15:56:44;34.17;;;13.55;;
58083;SDS011;43882;51.550;11.858;2023-03-20T15:59:12;30.02;;;10.68;;
58083;SDS011;43882;51.550;11.858;2023-03-20T16:01:40;31.10;;;15.10;;
58083;SDS011;43882;51.550;11.858;2023-03-20T16:04:08;28.08;;;12.18;;
58083;SDS011;43882;51.550;11.858;2023-03-20T16:06:43;29.23;;;13.52;;
58083;SDS011;43882;51.550;11.858;2023-03-20T16:09:11;29.40;;;12.80;;
58083;SDS011;43882;51.550;11.858;2023-03-20T16:11:40;26.63;;;11.88;;
58083;SDS011;43882;51.550;11.858;2023-03-20T16:14:21;31.35;;;12.80;;
58083;SDS011;43882;51.550;11.858;2023-03-20T16:16:49;31.58;;;12.45;;
58083;SDS011;43882;51.550;11.858;2023-03-20T16:19:16;30.88;;;11.60;;
58083;SDS011;43882;51.550;11.858;2023-03-20T16:21:43;32.10;;;12.88;;
58083;SDS011;43882;51.550;11.858;2023-03-20T16:24:25;38.58;;;16.60;;
58083;SDS011;43882;51.550;11.858;2023-03-20T16:26:55;37.63;;;21.92;;
58083;SDS011;43882;51.550;11.858;2023-03-20T16:29:22;35.90;;;16.45;;
58083;SDS011;43882;51.550;11.858;2023-03-20T16:31:54;35.72;;;16.42;;
58083;SDS011;43882;51.550;11.858;2023-03-20T16:34:23;32.55;;;14.00;;
58083;SDS011;43882;51.550;11.858;2023-03-20T16:36:53;33.67;;;14.27;;
58083;SDS011;43882;51.550;11.858;2023-03-20T16:39:23;28.42;;;11.52;;
58083;SDS011;43882;51.550;11.858;2023-03-20T16:41:55;29.98;;;11.25;;
58083;SDS011;43882;51.550;11.858;2023-03-20T16:44:40;208.38;;;74.88;;